createdAt,value
2018-12-11T05:35:37.015Z,0.00
2018-12-11T05:36:37.002Z,0.00
2018-12-11T05:37:37.001Z,0.00
2018-12-11T05:38:36.973Z,0.00
2018-12-11T05:39:36.959Z,0.00
2018-12-11T05:40:36.949Z,0.00
2018-12-11T05:41:44.977Z,0.00
2018-12-11T05:42:36.955Z,0.00
2018-12-11T05:43:36.915Z,0.00
2018-12-11T05:44:36.906Z,0.00
2018-12-11T05:45:36.896Z,0.00
2018-12-11T05:46:36.887Z,0.00
2018-12-11T05:47:36.908Z,0.00
2018-12-11T05:48:36.864Z,0.00
2018-12-11T05:49:36.905Z,0.00
2018-12-11T05:50:36.845Z,0.00
2018-12-11T05:51:36.843Z,0.00
2018-12-11T05:52:36.866Z,0.00
2018-12-11T05:53:36.821Z,0.00
2018-12-11T05:54:36.814Z,0.00
2018-12-11T05:55:36.796Z,0.00
2018-12-11T05:56:36.789Z,0.00
2018-12-11T05:57:36.791Z,0.00
2018-12-11T05:58:36.789Z,0.00
2018-12-11T05:59:36.755Z,0.00
2018-12-11T06:00:36.741Z,0.00
2018-12-11T06:01:36.730Z,0.00
2018-12-11T06:02:36.772Z,0.00
2018-12-11T06:03:36.719Z,0.00
2018-12-11T06:04:36.701Z,0.00
2018-12-11T06:05:36.708Z,0.00
2018-12-11T06:06:36.678Z,0.00
2018-12-11T06:07:36.696Z,0.00
2018-12-11T06:08:36.698Z,0.00
2018-12-11T06:09:36.661Z,0.00
2018-12-11T06:10:36.639Z,0.00
2018-12-11T06:11:36.636Z,0.00
2018-12-11T06:12:36.680Z,0.00
2018-12-11T06:13:36.603Z,0.00
2018-12-11T06:14:36.598Z,0.00
2018-12-11T06:15:36.585Z,0.00
2018-12-11T06:16:36.579Z,0.00
2018-12-11T06:17:36.629Z,0.00
2018-12-11T06:18:36.561Z,0.00
2018-12-11T06:19:36.568Z,0.00
2018-12-11T06:20:36.636Z,0.00
2018-12-11T06:21:36.548Z,0.00
2018-12-11T06:22:36.529Z,0.00
2018-12-11T06:23:36.506Z,0.00
2018-12-11T06:24:36.493Z,0.00
2018-12-11T06:25:36.496Z,0.00
2018-12-11T06:26:36.489Z,0.00
2018-12-11T06:27:36.477Z,0.00
2018-12-11T06:28:36.469Z,0.00
2018-12-11T06:29:36.474Z,0.00
2018-12-11T06:30:36.429Z,0.00
2018-12-11T06:31:36.422Z,0.00
2018-12-11T06:32:36.430Z,0.00
2018-12-11T06:33:36.405Z,0.00
2018-12-11T06:34:36.466Z,0.00
2018-12-11T06:35:36.403Z,0.00
2018-12-11T06:36:36.399Z,0.00
2018-12-11T06:37:36.516Z,0.00
2018-12-11T06:38:36.385Z,0.00
2018-12-11T06:39:36.338Z,0.00
2018-12-11T06:40:36.393Z,0.00
2018-12-11T06:41:36.325Z,0.00
2018-12-11T06:42:36.334Z,0.00
2018-12-11T06:43:36.314Z,0.00
2018-12-11T06:44:36.298Z,0.00
2018-12-11T06:45:36.282Z,0.00
2018-12-11T06:46:36.278Z,0.00
2018-12-11T06:47:36.262Z,0.00
2018-12-11T06:48:36.284Z,0.00
2018-12-11T06:49:36.237Z,0.00
2018-12-11T06:50:36.232Z,4.00
2018-12-11T06:51:36.214Z,0.00
2018-12-11T06:52:36.248Z,0.00
2018-12-11T06:53:36.194Z,4.00
2018-12-11T06:54:36.190Z,4.00
2018-12-11T06:55:36.174Z,4.00
2018-12-11T06:56:36.181Z,4.00
2018-12-11T06:57:36.155Z,4.00
2018-12-11T06:58:36.164Z,4.00
2018-12-11T06:59:36.144Z,8.00
2018-12-11T07:00:36.169Z,8.00
2018-12-11T07:01:36.114Z,8.00
2018-12-11T07:02:36.220Z,8.00
2018-12-11T07:03:36.113Z,12.00
2018-12-11T07:04:36.087Z,12.00
2018-12-11T07:05:36.091Z,16.00
2018-12-11T07:06:36.065Z,16.00
2018-12-11T07:07:36.058Z,16.00
2018-12-11T07:08:36.062Z,20.00
2018-12-11T07:09:36.041Z,24.00
2018-12-11T07:10:36.025Z,32.00
2018-12-11T07:11:36.016Z,28.00
2018-12-11T07:12:36.004Z,24.00
2018-12-11T07:13:36.009Z,28.00
2018-12-11T07:14:35.982Z,32.00
2018-12-11T07:15:35.977Z,36.00
2018-12-11T07:16:36.806Z,40.00
2018-12-11T07:17:35.949Z,44.00
2018-12-11T07:18:35.969Z,48.00
2018-12-11T07:19:35.929Z,48.00
2018-12-11T07:20:35.922Z,56.00
2018-12-11T07:21:35.908Z,64.00
2018-12-11T07:22:35.913Z,72.00
2018-12-11T07:23:35.978Z,68.00
2018-12-11T07:24:35.879Z,76.00
2018-12-11T07:25:35.876Z,80.00
2018-12-11T07:26:35.860Z,84.00
2018-12-11T07:27:35.847Z,96.00
2018-12-11T07:28:35.939Z,104.00
2018-12-11T07:29:35.835Z,124.00
2018-12-11T07:30:35.819Z,136.00
2018-12-11T07:31:35.808Z,148.00
2018-12-11T07:32:35.793Z,160.00
2018-12-11T07:33:35.811Z,168.00
2018-12-11T07:34:35.772Z,184.00
2018-12-11T07:35:35.762Z,188.00
2018-12-11T07:36:35.774Z,184.00
2018-12-11T07:37:36.217Z,184.00
2018-12-11T07:38:35.748Z,204.00
2018-12-11T07:39:35.725Z,220.00
2018-12-11T07:40:35.723Z,240.00
2018-12-11T07:41:35.700Z,240.00
2018-12-11T07:42:35.689Z,244.00
2018-12-11T07:43:35.713Z,256.00
2018-12-11T07:44:35.673Z,264.00
2018-12-11T07:45:35.662Z,264.00
2018-12-11T07:46:35.648Z,276.00
2018-12-11T07:47:35.639Z,284.00
2018-12-11T07:48:35.649Z,288.00
2018-12-11T07:49:35.616Z,288.00
2018-12-11T07:50:35.640Z,328.00
2018-12-11T07:51:35.608Z,360.00
2018-12-11T07:52:35.604Z,368.00
2018-12-11T07:53:35.596Z,392.00
2018-12-11T07:54:35.565Z,412.00
2018-12-11T07:55:35.557Z,440.00
2018-12-11T07:56:35.553Z,440.00
2018-12-11T07:57:35.537Z,444.00
2018-12-11T07:58:35.546Z,500.00
2018-12-11T07:59:35.518Z,528.00
2018-12-11T08:00:35.510Z,540.00
2018-12-11T08:01:35.574Z,532.00
2018-12-11T08:02:35.485Z,540.00
2018-12-11T08:03:35.505Z,560.00
2018-12-11T08:04:35.469Z,576.00
2018-12-11T08:05:35.479Z,596.00
2018-12-11T08:06:35.443Z,612.00
2018-12-11T08:07:35.433Z,632.00
2018-12-11T08:08:35.477Z,656.00
2018-12-11T08:09:35.413Z,676.00
2018-12-11T08:10:35.442Z,700.00
2018-12-11T08:11:35.392Z,724.00
2018-12-11T08:12:35.380Z,748.00
2018-12-11T08:13:35.396Z,772.00
2018-12-11T08:14:35.375Z,804.00
2018-12-11T08:15:35.400Z,852.00
2018-12-11T08:16:35.340Z,920.00
2018-12-11T08:17:35.374Z,1012.00
2018-12-11T08:18:35.346Z,1140.00
2018-12-11T08:19:35.321Z,1328.00
2018-12-11T08:20:35.320Z,1220.00
2018-12-11T08:21:35.322Z,1368.00
2018-12-11T08:22:35.335Z,1320.00
2018-12-11T08:23:35.307Z,1224.00
2018-12-11T08:24:35.265Z,1324.00
2018-12-11T08:25:35.248Z,1428.00
2018-12-11T08:26:35.247Z,1180.00
2018-12-11T08:27:35.226Z,1020.00
2018-12-11T08:28:36.083Z,1040.00
2018-12-11T08:29:35.215Z,1092.00
2018-12-11T08:30:35.198Z,1208.00
2018-12-11T08:31:35.207Z,1184.00
2018-12-11T08:32:35.176Z,1152.00
2018-12-11T08:33:35.194Z,1160.00
2018-12-11T08:34:35.157Z,1136.00
2018-12-11T08:35:35.150Z,1148.00
2018-12-11T08:36:35.133Z,1144.00
2018-12-11T08:37:35.124Z,1188.00
2018-12-11T08:38:35.139Z,1376.00
2018-12-11T08:39:35.111Z,1604.00
2018-12-11T08:40:35.097Z,1656.00
2018-12-11T08:41:35.089Z,1636.00
2018-12-11T08:42:35.085Z,1592.00
2018-12-11T08:43:35.103Z,1356.00
2018-12-11T08:44:35.062Z,1220.00
2018-12-11T08:45:35.047Z,1188.00
2018-12-11T08:46:35.032Z,1176.00
2018-12-11T08:47:35.021Z,1304.00
2018-12-11T08:48:35.022Z,1624.00
2018-12-11T08:49:35.020Z,2024.00
2018-12-11T08:50:34.990Z,2248.00
2018-12-11T08:51:34.982Z,2396.00
2018-12-11T08:52:34.986Z,2224.00
2018-12-11T08:53:34.960Z,1892.00
2018-12-11T08:54:34.976Z,1784.00
2018-12-11T08:55:34.941Z,1712.00
2018-12-11T08:56:34.930Z,1596.00
2018-12-11T08:57:34.921Z,1668.00
2018-12-11T08:58:34.932Z,1912.00
2018-12-11T08:59:34.928Z,2028.00
2018-12-11T09:00:34.890Z,1672.00
2018-12-11T09:01:34.881Z,1420.00
2018-12-11T09:02:34.873Z,1396.00
2018-12-11T09:03:34.861Z,1488.00
2018-12-11T09:04:34.881Z,1604.00
2018-12-11T09:05:34.838Z,1756.00
2018-12-11T09:06:34.829Z,1944.00
2018-12-11T09:07:34.818Z,2072.00
2018-12-11T09:08:34.810Z,2660.00
2018-12-11T09:09:34.814Z,3508.00
2018-12-11T09:10:34.794Z,4200.00
2018-12-11T09:11:34.784Z,4368.00
2018-12-11T09:12:34.767Z,4296.00
2018-12-11T09:13:34.757Z,5296.00
2018-12-11T09:14:34.777Z,4552.00
2018-12-11T09:15:34.737Z,4004.00
2018-12-11T09:16:34.735Z,3396.00
2018-12-11T09:17:34.718Z,3592.00
2018-12-11T09:18:34.707Z,3672.00
2018-12-11T09:19:34.719Z,3996.00
2018-12-11T09:20:34.683Z,2796.00
2018-12-11T09:21:34.691Z,2612.00
2018-12-11T09:22:34.672Z,2912.00
2018-12-11T09:23:34.655Z,2976.00
2018-12-11T09:24:34.666Z,3312.00
2018-12-11T09:25:34.639Z,3324.00
2018-12-11T09:26:34.629Z,3376.00
2018-12-11T09:27:34.615Z,3404.00
2018-12-11T09:28:34.616Z,3472.00
2018-12-11T09:29:34.612Z,3136.00
2018-12-11T09:30:34.593Z,2864.00
2018-12-11T09:31:34.576Z,2952.00
2018-12-11T09:32:34.562Z,2892.00
2018-12-11T09:33:34.555Z,2720.00
2018-12-11T09:34:34.567Z,2548.00
2018-12-11T09:35:34.530Z,2608.00
2018-12-11T09:36:34.523Z,3208.00
2018-12-11T09:37:34.511Z,3084.00
2018-12-11T09:38:34.509Z,2788.00
2018-12-11T09:39:34.514Z,2404.00
2018-12-11T09:40:34.480Z,2280.00
2018-12-11T09:41:34.483Z,2240.00
2018-12-11T09:42:34.465Z,2332.00
2018-12-11T09:43:34.451Z,2284.00
2018-12-11T09:44:34.457Z,2048.00
2018-12-11T09:45:34.428Z,1616.00
2018-12-11T09:46:34.424Z,1284.00
2018-12-11T09:47:34.413Z,1024.00
2018-12-11T09:48:34.396Z,776.00
2018-12-11T09:49:34.429Z,752.00
2018-12-11T09:50:34.375Z,788.00
2018-12-11T09:51:34.364Z,836.00
2018-12-11T09:52:34.356Z,916.00
2018-12-11T09:53:34.354Z,1004.00
2018-12-11T09:54:34.388Z,968.00
2018-12-11T09:55:34.322Z,852.00
2018-12-11T09:56:34.313Z,848.00
2018-12-11T09:57:34.303Z,1044.00
2018-12-11T09:58:34.303Z,1308.00
2018-12-11T09:59:34.301Z,1456.00
2018-12-11T10:00:34.430Z,1340.00
2018-12-11T10:01:34.264Z,1376.00
2018-12-11T10:02:34.253Z,1212.00
2018-12-11T10:03:34.287Z,1172.00
2018-12-11T10:04:34.252Z,1124.00
2018-12-11T10:05:34.227Z,1004.00
2018-12-11T10:06:34.225Z,1052.00
2018-12-11T10:07:34.204Z,1136.00
2018-12-11T10:08:34.204Z,1320.00
2018-12-11T10:09:34.202Z,1648.00
2018-12-11T10:10:34.174Z,1880.00
2018-12-11T10:11:34.161Z,2084.00
2018-12-11T10:12:34.211Z,2292.00
2018-12-11T10:13:34.139Z,2228.00
2018-12-11T10:14:34.150Z,2348.00
2018-12-11T10:15:34.123Z,2356.00
2018-12-11T10:16:34.124Z,2460.00
2018-12-11T10:17:34.105Z,2768.00
2018-12-11T10:18:34.092Z,2948.00
2018-12-11T10:19:34.105Z,2756.00
2018-12-11T10:20:34.091Z,2648.00
2018-12-11T10:21:34.072Z,2476.00
2018-12-11T10:22:34.054Z,2480.00
2018-12-11T10:23:34.041Z,2380.00
2018-12-11T10:24:34.048Z,2444.00
2018-12-11T10:25:34.026Z,2516.00
2018-12-11T10:26:34.027Z,2960.00
2018-12-11T10:27:34.004Z,3676.00
2018-12-11T10:28:33.989Z,4348.00
2018-12-11T10:29:33.995Z,4212.00
2018-12-11T10:30:33.982Z,3208.00
2018-12-11T10:31:33.959Z,2368.00
2018-12-11T10:32:33.954Z,2564.00
2018-12-11T10:33:33.934Z,2360.00
2018-12-11T10:34:33.943Z,1632.00
2018-12-11T10:35:33.915Z,1076.00
2018-12-11T10:36:33.905Z,808.00
2018-12-11T10:37:33.892Z,736.00
2018-12-11T10:38:33.885Z,860.00
2018-12-11T10:39:33.874Z,1040.00
2018-12-11T10:40:33.895Z,1136.00
2018-12-11T10:41:33.851Z,1128.00
2018-12-11T10:42:33.843Z,1192.00
2018-12-11T10:43:33.831Z,1292.00
2018-12-11T10:44:33.818Z,1476.00
2018-12-11T10:45:33.827Z,1616.00
2018-12-11T10:46:33.991Z,1724.00
2018-12-11T10:47:33.784Z,1776.00
2018-12-11T10:48:33.792Z,1828.00
2018-12-11T10:49:33.765Z,1776.00
2018-12-11T10:50:33.775Z,1756.00
2018-12-11T10:51:33.751Z,1852.00
2018-12-11T10:52:33.759Z,2300.00
2018-12-11T10:53:33.793Z,4164.00
2018-12-11T10:54:33.713Z,8508.00
2018-12-11T10:55:33.732Z,10100.00
2018-12-11T10:56:33.703Z,8980.00
2018-12-11T10:57:33.684Z,11240.00
2018-12-11T10:58:33.672Z,10184.00
2018-12-11T10:59:33.723Z,4620.00
2018-12-11T11:00:33.677Z,2784.00
2018-12-11T11:01:33.641Z,3188.00
2018-12-11T11:02:33.630Z,4120.00
2018-12-11T11:03:33.626Z,5612.00
2018-12-11T11:04:33.607Z,5612.00
2018-12-11T11:05:33.615Z,4540.00
2018-12-11T11:06:33.587Z,4020.00
2018-12-11T11:07:33.579Z,4104.00
2018-12-11T11:08:33.574Z,3840.00
2018-12-11T11:09:33.556Z,3260.00
2018-12-11T11:10:33.564Z,2672.00
2018-12-11T11:11:33.534Z,2848.00
2018-12-11T11:12:33.531Z,2948.00
2018-12-11T11:13:33.524Z,3268.00
2018-12-11T11:14:33.518Z,3616.00
2018-12-11T11:15:33.522Z,3816.00
2018-12-11T11:16:33.486Z,4236.00
2018-12-11T11:17:33.471Z,4904.00
2018-12-11T11:18:33.457Z,5488.00
2018-12-11T11:19:33.459Z,6184.00
2018-12-11T11:20:33.455Z,6296.00
2018-12-11T11:21:33.428Z,5756.00
2018-12-11T11:22:33.419Z,5104.00
2018-12-11T11:23:33.408Z,4328.00
2018-12-11T11:24:33.406Z,3500.00
2018-12-11T11:25:33.402Z,2920.00
2018-12-11T11:26:33.377Z,2628.00
2018-12-11T11:27:33.362Z,2488.00
2018-12-11T11:28:33.353Z,2376.00
2018-12-11T11:29:33.341Z,2356.00
2018-12-11T11:30:33.350Z,2276.00
2018-12-11T11:31:33.322Z,2208.00
2018-12-11T11:32:33.321Z,2412.00
2018-12-11T11:33:33.297Z,2864.00
2018-12-11T11:34:33.285Z,3836.00
2018-12-11T11:35:33.294Z,4384.00
2018-12-11T11:36:33.268Z,5460.00
2018-12-11T11:37:33.255Z,5240.00
2018-12-11T11:38:33.244Z,5688.00
2018-12-11T11:39:33.243Z,5692.00
2018-12-11T11:40:33.255Z,5572.00
2018-12-11T11:41:33.213Z,5484.00
2018-12-11T11:42:33.203Z,5440.00
2018-12-11T11:43:33.207Z,5400.00
2018-12-11T11:44:33.180Z,5616.00
2018-12-11T11:45:33.194Z,5828.00
2018-12-11T11:46:33.158Z,6348.00
2018-12-11T11:47:33.167Z,7060.00
2018-12-11T11:48:33.137Z,5416.00
2018-12-11T11:49:33.127Z,9136.00
2018-12-11T11:50:33.139Z,9580.00
2018-12-11T11:51:33.106Z,10388.00
2018-12-11T11:52:33.093Z,11196.00
2018-12-11T11:53:33.088Z,12496.00
2018-12-11T11:54:33.074Z,10168.00
2018-12-11T11:55:33.087Z,8220.00
2018-12-11T11:56:33.050Z,9908.00
2018-12-11T11:57:33.049Z,9824.00
2018-12-11T11:58:33.026Z,8564.00
2018-12-11T11:59:33.018Z,6784.00
2018-12-11T12:00:33.038Z,4552.00
2018-12-11T12:01:32.993Z,5300.00
2018-12-11T12:02:33.500Z,2880.00
2018-12-11T12:03:32.981Z,2408.00
2018-12-11T12:04:32.965Z,2168.00
2018-12-11T12:05:32.960Z,2444.00
2018-12-11T12:06:32.960Z,2464.00
2018-12-11T12:07:32.929Z,2536.00
2018-12-11T12:08:32.920Z,2552.00
2018-12-11T12:09:32.915Z,2628.00
2018-12-11T12:10:32.900Z,2400.00
2018-12-11T12:11:32.906Z,2104.00
2018-12-11T12:12:32.884Z,1892.00
2018-12-11T12:13:32.867Z,1660.00
2018-12-11T12:14:32.853Z,2036.00
2018-12-11T12:15:32.845Z,2292.00
2018-12-11T12:16:32.862Z,2624.00
2018-12-11T12:17:32.831Z,2068.00
2018-12-11T12:18:32.830Z,1848.00
2018-12-11T12:19:32.802Z,1852.00
2018-12-11T12:20:32.790Z,1740.00
2018-12-11T12:21:32.798Z,1740.00
2018-12-11T12:22:32.769Z,1904.00
2018-12-11T12:23:32.764Z,2124.00
2018-12-11T12:24:32.763Z,2496.00
2018-12-11T12:25:32.739Z,2084.00
2018-12-11T12:26:32.773Z,2304.00
2018-12-11T12:27:32.713Z,2272.00
2018-12-11T12:28:32.710Z,2340.00
2018-12-11T12:29:32.706Z,2392.00
2018-12-11T12:30:32.686Z,2884.00
2018-12-11T12:31:32.693Z,3148.00
2018-12-11T12:32:32.661Z,3016.00
2018-12-11T12:33:32.657Z,2616.00
2018-12-11T12:34:32.669Z,2284.00
2018-12-11T12:35:32.632Z,1984.00
2018-12-11T12:36:32.649Z,2240.00
2018-12-11T12:37:32.620Z,2260.00
2018-12-11T12:38:32.598Z,1884.00
2018-12-11T12:39:32.588Z,1716.00
2018-12-11T12:40:32.575Z,1784.00
2018-12-11T12:41:32.583Z,2172.00
2018-12-11T12:42:32.553Z,3064.00
2018-12-11T12:43:32.547Z,2992.00
2018-12-11T12:44:32.532Z,2956.00
2018-12-11T12:45:32.522Z,3536.00
2018-12-11T12:46:32.532Z,4344.00
2018-12-11T12:47:32.512Z,4288.00
2018-12-11T12:48:32.491Z,4404.00
2018-12-11T12:49:32.477Z,4444.00
2018-12-11T12:50:32.475Z,4404.00
2018-12-11T12:51:32.481Z,4064.00
2018-12-11T12:52:32.451Z,3904.00
2018-12-11T12:53:32.438Z,3656.00
2018-12-11T12:54:32.424Z,3336.00
2018-12-11T12:55:32.418Z,2972.00
2018-12-11T12:56:32.423Z,2832.00
2018-12-11T12:57:32.395Z,2852.00
2018-12-11T12:58:32.383Z,2964.00
2018-12-11T12:59:32.390Z,3016.00
2018-12-11T13:00:32.362Z,2908.00
2018-12-11T13:01:32.372Z,2348.00
2018-12-11T13:02:32.352Z,1776.00
2018-12-11T13:03:32.332Z,1336.00
2018-12-11T13:04:32.345Z,1032.00
2018-12-11T13:05:32.309Z,916.00
2018-12-11T13:06:32.327Z,772.00
2018-12-11T13:07:32.288Z,656.00
2018-12-11T13:08:32.275Z,612.00
2018-12-11T13:09:32.262Z,508.00
2018-12-11T13:10:33.698Z,488.00
2018-12-11T13:11:32.270Z,580.00
2018-12-11T13:12:32.234Z,564.00
2018-12-11T13:13:32.221Z,668.00
2018-12-11T13:14:32.211Z,832.00
2018-12-11T13:15:32.204Z,848.00
2018-12-11T13:16:32.243Z,992.00
2018-12-11T13:17:32.184Z,1084.00
2018-12-11T13:18:32.169Z,972.00
2018-12-11T13:19:32.171Z,868.00
2018-12-11T13:20:32.150Z,784.00
2018-12-11T13:21:32.153Z,740.00
2018-12-11T13:22:32.130Z,832.00
2018-12-11T13:23:32.118Z,952.00
2018-12-11T13:24:32.109Z,1012.00
2018-12-11T13:25:32.094Z,892.00
2018-12-11T13:26:32.102Z,624.00
2018-12-11T13:27:32.074Z,640.00
2018-12-11T13:28:32.067Z,808.00
2018-12-11T13:29:32.064Z,988.00
2018-12-11T13:30:32.051Z,1192.00
2018-12-11T13:31:32.055Z,1396.00
2018-12-11T13:32:32.052Z,1664.00
2018-12-11T13:33:32.699Z,1800.00
2018-12-11T13:34:32.005Z,1976.00
2018-12-11T13:35:31.990Z,2048.00
2018-12-11T13:36:32.361Z,1976.00
2018-12-11T13:37:31.975Z,2100.00
2018-12-11T13:38:31.961Z,2420.00
2018-12-11T13:39:31.951Z,2460.00
2018-12-11T13:40:31.958Z,2656.00
2018-12-11T13:41:31.971Z,2600.00
2018-12-11T13:42:31.919Z,2612.00
2018-12-11T13:43:31.928Z,2432.00
2018-12-11T13:44:31.897Z,2636.00
2018-12-11T13:45:31.894Z,2280.00
2018-12-11T13:46:31.898Z,2160.00
2018-12-11T13:47:31.876Z,2072.00
2018-12-11T13:48:31.859Z,1900.00
2018-12-11T13:49:31.857Z,2000.00
2018-12-11T13:50:31.838Z,2088.00
2018-12-11T13:51:31.846Z,1988.00
2018-12-11T13:52:31.816Z,1732.00
2018-12-11T13:53:31.820Z,1324.00
2018-12-11T13:54:32.182Z,1312.00
2018-12-11T13:55:31.787Z,1420.00
2018-12-11T13:56:31.821Z,1492.00
2018-12-11T13:57:31.765Z,1136.00
2018-12-11T13:58:31.756Z,824.00
2018-12-11T13:59:31.745Z,588.00
2018-12-11T14:00:31.739Z,456.00
2018-12-11T14:01:31.726Z,572.00
2018-12-11T14:02:31.747Z,536.00
2018-12-11T14:03:31.704Z,492.00
2018-12-11T14:04:31.710Z,392.00
2018-12-11T14:05:31.685Z,324.00
2018-12-11T14:06:31.678Z,368.00
2018-12-11T14:07:31.694Z,428.00
2018-12-11T14:08:31.664Z,480.00
2018-12-11T14:09:31.643Z,468.00
2018-12-11T14:10:31.633Z,496.00
2018-12-11T14:11:31.625Z,680.00
2018-12-11T14:12:31.640Z,760.00
2018-12-11T14:13:31.603Z,748.00
2018-12-11T14:14:31.595Z,744.00
2018-12-11T14:15:31.607Z,752.00
2018-12-11T14:16:31.575Z,728.00
2018-12-11T14:17:31.577Z,696.00
2018-12-11T14:18:31.568Z,656.00
2018-12-11T14:19:31.550Z,632.00
2018-12-11T14:20:31.537Z,620.00
2018-12-11T14:21:31.520Z,616.00
2018-12-11T14:22:31.535Z,616.00
2018-12-11T14:23:31.503Z,616.00
2018-12-11T14:24:31.499Z,608.00
2018-12-11T14:25:31.486Z,612.00
2018-12-11T14:26:31.472Z,628.00
2018-12-11T14:27:31.479Z,640.00
2018-12-11T14:28:31.493Z,656.00
2018-12-11T14:29:31.441Z,840.00
2018-12-11T14:30:31.430Z,880.00
2018-12-11T14:31:31.448Z,892.00
2018-12-11T14:32:31.427Z,872.00
2018-12-11T14:33:31.401Z,756.00
2018-12-11T14:34:31.400Z,648.00
2018-12-11T14:35:31.379Z,660.00
2018-12-11T14:36:31.368Z,612.00
2018-12-11T14:37:31.392Z,544.00
2018-12-11T14:38:31.353Z,552.00
2018-12-11T14:39:31.343Z,536.00
2018-12-11T14:40:31.327Z,520.00
2018-12-11T14:41:31.318Z,496.00
2018-12-11T14:42:31.324Z,484.00
2018-12-11T14:43:31.311Z,476.00
2018-12-11T14:44:31.294Z,468.00
2018-12-11T14:45:31.280Z,460.00
2018-12-11T14:46:31.304Z,452.00
2018-12-11T14:47:31.276Z,444.00
2018-12-11T14:48:31.245Z,440.00
2018-12-11T14:49:31.243Z,432.00
2018-12-11T14:50:31.227Z,424.00
2018-12-11T14:51:31.223Z,416.00
2018-12-11T14:52:31.232Z,404.00
2018-12-11T14:53:31.195Z,396.00
2018-12-11T14:54:31.183Z,388.00
2018-12-11T14:55:31.176Z,376.00
2018-12-11T14:56:31.169Z,368.00
2018-12-11T14:57:31.490Z,356.00
2018-12-11T14:58:31.142Z,348.00
2018-12-11T14:59:31.135Z,336.00
2018-12-11T15:00:31.124Z,336.00
2018-12-11T15:01:31.111Z,332.00
2018-12-11T15:02:31.119Z,328.00
2018-12-11T15:03:31.106Z,320.00
2018-12-11T15:04:31.084Z,328.00
2018-12-11T15:05:31.071Z,316.00
2018-12-11T15:06:31.060Z,316.00
2018-12-11T15:07:31.073Z,316.00
2018-12-11T15:08:31.043Z,308.00
2018-12-11T15:09:31.030Z,276.00
2018-12-11T15:10:31.039Z,252.00
2018-12-11T15:11:31.008Z,228.00
2018-12-11T15:12:31.022Z,204.00
2018-12-11T15:13:30.989Z,192.00
2018-12-11T15:14:30.975Z,188.00
2018-12-11T15:15:30.971Z,180.00
2018-12-11T15:16:30.975Z,168.00
2018-12-11T15:17:30.976Z,160.00
2018-12-11T15:18:30.951Z,144.00
2018-12-11T15:19:30.936Z,136.00
2018-12-11T15:20:30.915Z,124.00
2018-12-11T15:21:30.919Z,120.00
2018-12-11T15:22:30.915Z,108.00
2018-12-11T15:23:30.884Z,104.00
2018-12-11T15:24:30.871Z,96.00
2018-12-11T15:25:30.871Z,92.00
2018-12-11T15:26:30.852Z,88.00
2018-12-11T15:27:30.989Z,80.00
2018-12-11T15:28:30.834Z,76.00
2018-12-11T15:29:30.820Z,68.00
2018-12-11T15:30:30.816Z,64.00
2018-12-11T15:31:30.810Z,56.00
2018-12-11T15:32:30.810Z,48.00
2018-12-11T15:33:30.786Z,44.00
2018-12-11T15:34:30.779Z,44.00
2018-12-11T15:35:30.760Z,36.00
2018-12-11T15:36:30.756Z,32.00
2018-12-11T15:37:30.759Z,28.00
2018-12-11T15:38:30.731Z,24.00
2018-12-11T15:39:35.785Z,24.00
2018-12-11T15:40:31.710Z,20.00
2018-12-11T15:41:30.697Z,16.00
2018-12-11T15:42:30.714Z,16.00
2018-12-11T15:43:30.677Z,12.00
2018-12-11T15:44:30.680Z,12.00
2018-12-11T15:45:30.661Z,12.00
2018-12-11T15:46:30.653Z,8.00
2018-12-11T15:47:30.636Z,4.00
2018-12-11T15:48:30.649Z,8.00
2018-12-11T15:49:30.617Z,4.00
2018-12-11T15:50:30.614Z,4.00
2018-12-11T15:51:30.601Z,4.00
2018-12-11T15:52:30.585Z,4.00
2018-12-11T15:53:30.621Z,0.00
2018-12-11T15:54:30.571Z,4.00
2018-12-11T15:55:30.556Z,4.00
2018-12-11T15:56:30.547Z,4.00
2018-12-11T15:57:30.537Z,0.00
2018-12-11T15:58:30.543Z,0.00
2018-12-11T15:59:30.519Z,0.00
2018-12-11T16:00:30.516Z,0.00
2018-12-11T16:01:30.497Z,0.00
2018-12-11T16:02:30.486Z,0.00
2018-12-11T16:03:30.502Z,0.00
2018-12-11T16:04:30.492Z,0.00
2018-12-11T16:05:30.465Z,0.00
2018-12-11T16:06:30.441Z,0.00
2018-12-11T16:07:30.437Z,0.00
2018-12-11T16:08:30.453Z,0.00
2018-12-11T16:09:30.422Z,0.00
2018-12-11T16:10:30.406Z,0.00
2018-12-11T16:11:30.398Z,0.00
2018-12-11T16:12:30.389Z,0.00
2018-12-11T16:13:30.441Z,0.00
2018-12-11T16:14:30.363Z,0.00
2018-12-11T16:15:30.354Z,0.00
2018-12-11T16:16:30.348Z,0.00
2018-12-11T16:17:30.373Z,0.00
2018-12-11T16:18:30.381Z,0.00
2018-12-11T16:19:30.309Z,0.00
2018-12-11T16:20:30.360Z,0.00
2018-12-11T16:21:30.294Z,0.00
2018-12-11T16:22:30.323Z,0.00
2018-12-11T16:23:30.294Z,0.00
2018-12-11T16:24:30.269Z,0.00
2018-12-11T16:25:30.257Z,0.00
2018-12-11T16:26:30.254Z,0.00
2018-12-11T16:27:30.242Z,0.00
2018-12-11T16:28:30.247Z,0.00
2018-12-11T16:29:30.211Z,0.00
2018-12-11T16:30:30.202Z,0.00
2018-12-11T16:31:30.194Z,0.00
2018-12-11T16:32:30.221Z,0.00
2018-12-11T16:33:30.198Z,0.00
2018-12-11T16:34:30.172Z,0.00
2018-12-11T16:35:30.145Z,0.00
2018-12-11T16:36:30.140Z,0.00
2018-12-11T16:37:30.123Z,0.00
2018-12-11T16:38:30.141Z,0.00
2018-12-11T16:39:30.105Z,0.00
2018-12-11T16:40:30.096Z,0.00
2018-12-11T16:41:30.083Z,0.00
2018-12-11T16:42:30.093Z,0.00
2018-12-11T16:43:30.093Z,0.00
2018-12-11T16:44:30.050Z,0.00
2018-12-11T16:45:30.040Z,0.00
2018-12-11T16:46:30.047Z,0.00
2018-12-11T16:47:30.021Z,0.00
2018-12-11T16:48:30.035Z,0.00
2018-12-11T16:49:30.001Z,0.00
2018-12-11T16:50:29.990Z,0.00
2018-12-11T16:51:30.021Z,0.00
2018-12-11T16:52:29.982Z,0.00
2018-12-11T16:53:30.016Z,0.00
2018-12-11T16:54:29.945Z,0.00
2018-12-11T16:55:29.939Z,0.00
2018-12-11T16:56:29.945Z,0.00
2018-12-11T16:57:29.972Z,0.00
2018-12-11T16:58:29.927Z,0.00
2018-12-11T16:59:29.899Z,0.00
2018-12-11T17:00:29.889Z,0.00
2018-12-11T17:01:29.879Z,0.00
2018-12-11T17:02:29.877Z,0.00
2018-12-11T17:03:29.881Z,0.00
2018-12-11T17:04:29.842Z,0.00
2018-12-11T17:05:29.835Z,0.00
2018-12-11T17:06:29.822Z,0.00
2018-12-11T17:07:29.822Z,0.00
2018-12-11T17:08:29.831Z,0.00
2018-12-11T17:09:29.790Z,0.00
2018-12-11T17:10:29.781Z,0.00
2018-12-11T17:11:29.780Z,0.00
2018-12-11T17:12:29.760Z,0.00
2018-12-11T17:13:29.771Z,0.00
2018-12-11T17:14:29.743Z,0.00
2018-12-11T17:15:29.730Z,0.00
2018-12-11T17:16:29.736Z,0.00
2018-12-11T17:17:29.708Z,0.00
2018-12-11T17:18:29.718Z,0.00
2018-12-11T17:19:29.698Z,0.00
2018-12-11T17:20:29.684Z,0.00
2018-12-11T17:21:29.673Z,0.00
2018-12-11T17:22:29.657Z,0.00
2018-12-11T17:23:29.669Z,0.00
2018-12-11T17:24:29.639Z,0.00
2018-12-11T17:25:29.634Z,0.00
2018-12-11T17:26:29.617Z,0.00
2018-12-11T17:27:29.626Z,0.00
2018-12-11T17:28:29.617Z,0.00
2018-12-11T17:29:29.585Z,0.00
2018-12-11T17:30:29.574Z,0.00
2018-12-11T17:31:29.574Z,0.00
2018-12-11T17:32:29.560Z,0.00
2018-12-11T17:33:29.584Z,0.00
2018-12-11T17:34:29.533Z,0.00
2018-12-11T17:35:29.523Z,0.00
2018-12-11T17:36:29.512Z,0.00
2018-12-11T17:37:29.513Z,0.00
2018-12-11T17:38:29.636Z,0.00
2018-12-11T17:39:29.486Z,0.00
2018-12-11T17:40:29.471Z,0.00
2018-12-11T17:41:29.459Z,0.00
2018-12-11T17:42:29.472Z,0.00
2018-12-11T17:43:29.446Z,0.00
2018-12-11T17:44:29.454Z,0.00
2018-12-11T17:45:29.418Z,0.00
2018-12-11T17:46:29.419Z,0.00
2018-12-11T17:47:29.396Z,0.00
2018-12-11T17:48:29.398Z,0.00
2018-12-11T17:49:29.398Z,0.00
2018-12-11T17:50:29.367Z,0.00
2018-12-11T17:51:29.356Z,0.00
2018-12-11T17:52:29.357Z,0.00
2018-12-11T17:53:29.337Z,0.00
2018-12-11T17:54:29.346Z,0.00
2018-12-11T17:55:29.322Z,0.00
2018-12-11T17:56:29.311Z,0.00
2018-12-11T17:57:29.299Z,0.00
2018-12-11T17:58:29.290Z,0.00
2018-12-11T17:59:29.303Z,0.00
2018-12-11T18:00:29.264Z,0.00
2018-12-11T18:01:29.264Z,0.00
2018-12-11T18:02:29.248Z,0.00
2018-12-11T18:03:29.235Z,0.00
2018-12-11T18:04:29.253Z,0.00
2018-12-11T18:05:29.221Z,0.00
2018-12-11T18:06:29.203Z,0.00
2018-12-11T18:07:29.197Z,0.00
2018-12-11T18:08:29.191Z,0.00
2018-12-11T18:09:29.202Z,0.00